Time;durP1;ratioP1;P1;durP2;ratioP2;P2;SDS_P1;SDS_P2;PMS_P1;PMS_P2;Temp;Humidity;BMP_temperature;BMP_pressure;BME280_temperature;BME280_humidity;BME280_pressure;Samples;Min_cycle;Max_cycle;Signal;HPM_P1;HPM_P2
2023/07/14 00:01:24;;;;;;;;;;;;;;;21.13;33.91;100892.31;4929317;28;99018;-74
2023/07/14 00:03:50;;;;;;;;;;;;;;;21.13;33.83;100886.03;4923451;27;98206;-70
2023/07/14 00:06:17;;;;;;;;;;;;;;;21.13;33.82;100884.09;4943001;27;98316;-75
2023/07/14 00:08:43;;;;;;;;;;;;;;;21.12;33.93;100890.72;4942067;27;98065;-70
2023/07/14 00:11:24;;;;;;;;;;;;;;;21.12;33.90;100900.88;4930371;28;97969;-70
2023/07/14 00:13:51;;;;;;;;;;;;;;;21.10;33.89;100892.97;4924242;28;98005;-70
2023/07/14 00:16:19;;;;;;;;;;;;;;;21.08;33.98;100890.56;4927435;27;99135;-70
2023/07/14 00:18:46;;;;;;;;;;;;;;;21.06;34.00;100892.00;4928458;27;99655;-74
2023/07/14 00:21:25;;;;;;;;;;;;;;;21.03;34.12;100896.22;4957199;27;99751;-70
2023/07/14 00:23:58;;;;;;;;;;;;;;;21.00;33.96;100901.56;4932390;27;98133;-74
2023/07/14 00:26:26;;;;;;;;;;;;;;;20.95;34.03;100899.00;4929800;28;97956;-74
2023/07/14 00:28:52;;;;;;;;;;;;;;;20.89;33.87;100894.81;4935739;28;99440;-74
2023/07/14 00:31:20;;;;;;;;;;;;;;;20.83;34.12;100896.94;4941026;28;98062;-74
2023/07/14 00:33:50;;;;;;;;;;;;;;;20.78;34.03;100900.63;4924022;27;98167;-74
2023/07/14 00:36:17;;;;;;;;;;;;;;;20.74;34.10;100898.88;4943390;28;97901;-74
2023/07/14 00:38:44;;;;;;;;;;;;;;;20.69;34.01;100894.38;4945342;27;97983;-70
2023/07/14 00:41:23;;;;;;;;;;;;;;;20.66;34.03;100894.22;4930682;28;97849;-70
2023/07/14 00:43:50;;;;;;;;;;;;;;;20.61;34.03;100894.38;4948892;28;97896;-70
2023/07/14 00:46:30;;;;;;;;;;;;;;;20.55;34.09;100891.81;4930153;28;99715;-74
2023/07/14 00:49:01;;;;;;;;;;;;;;;20.50;34.04;100883.75;4930882;27;98107;-74
2023/07/14 00:51:29;;;;;;;;;;;;;;;20.47;34.15;100892.59;4930390;28;98081;-69
2023/07/14 00:53:56;;;;;;;;;;;;;;;20.46;34.16;100890.19;4945428;27;98240;-73
2023/07/14 00:56:33;;;;;;;;;;;;;;;20.44;34.23;100890.53;4943272;28;98096;-68
2023/07/14 00:58:59;;;;;;;;;;;;;;;20.42;34.19;100891.97;4944682;28;98254;-70
2023/07/14 01:01:27;;;;;;;;;;;;;;;20.39;34.21;100893.41;4929925;27;97803;-74
2023/07/14 01:03:57;;;;;;;;;;;;;;;20.38;34.08;100889.06;4945187;27;98219;-74
2023/07/14 01:06:24;;;;;;;;;;;;;;;20.38;34.22;100888.25;4931639;28;97988;-70
2023/07/14 01:09:04;;;;;;;;;;;;;;;20.35;34.10;100895.97;4941137;27;98072;-73
2023/07/14 01:11:44;;;;;;;;;;;;;;;20.35;34.25;100889.69;4923463;28;98065;-69
2023/07/14 01:14:16;;;;;;;;;;;;;;;20.34;34.10;100885.34;4930274;28;99827;-70
2023/07/14 01:16:42;;;;;;;;;;;;;;;20.32;34.30;100893.09;4946233;28;99373;-70
2023/07/14 01:19:20;;;;;;;;;;;;;;;20.31;34.25;100895.00;4931589;27;99641;-73
2023/07/14 01:21:47;;;;;;;;;;;;;;;20.27;34.21;100888.56;4958049;27;98203;-74
2023/07/14 01:24:17;;;;;;;;;;;;;;;20.24;34.28;100882.94;4928253;28;99797;-73
2023/07/14 01:26:53;;;;;;;;;;;;;;;20.21;34.29;100880.88;4945758;28;100116;-69
2023/07/14 01:29:19;;;;;;;;;;;;;;;20.19;34.20;100892.13;4924993;28;98325;-70
2023/07/14 01:31:47;;;;;;;;;;;;;;;20.15;34.19;100888.41;4929116;28;98395;-74
2023/07/14 01:34:13;;;;;;;;;;;;;;;20.11;34.34;100887.44;4929716;28;98239;-73
2023/07/14 01:36:40;;;;;;;;;;;;;;;20.07;34.43;100886.47;4930238;27;98189;-69
2023/07/14 01:39:06;;;;;;;;;;;;;;;20.01;34.34;100888.56;4929699;27;98051;-73
2023/07/14 01:41:33;;;;;;;;;;;;;;;19.95;34.39;100889.84;4925873;28;98300;-70
2023/07/14 01:44:03;;;;;;;;;;;;;;;19.88;34.35;100892.25;4927396;28;99758;-70
2023/07/14 01:46:29;;;;;;;;;;;;;;;19.80;34.49;100893.84;4930837;28;98190;-70
2023/07/14 01:49:13;;;;;;;;;;;;;;;19.76;34.43;100903.81;4932230;27;98076;-73
2023/07/14 01:51:43;;;;;;;;;;;;;;;19.70;34.49;100902.38;4965290;27;98978;-70
2023/07/14 01:54:45;;;;;;;;;;;;;;;19.68;34.38;100909.25;4944901;28;97886;-74
2023/07/14 01:57:13;;;;;;;;;;;;;;;19.61;34.56;100913.28;4928458;28;98763;-70
2023/07/14 01:59:46;;;;;;;;;;;;;;;19.54;34.54;100910.16;4927558;27;98235;-73
2023/07/14 02:02:26;;;;;;;;;;;;;;;19.48;34.43;100914.16;4930013;28;98248;-73
2023/07/14 02:04:53;;;;;;;;;;;;;;;19.43;34.62;100917.03;4939056;28;98274;-73
2023/07/14 02:07:20;;;;;;;;;;;;;;;19.37;34.52;100918.28;4927275;28;98096;-74
2023/07/14 02:09:47;;;;;;;;;;;;;;;19.34;34.39;100911.53;4923232;27;98759;-70
2023/07/14 02:12:16;;;;;;;;;;;;;;;19.30;34.62;100915.22;4929300;28;98072;-69
2023/07/14 02:14:48;;;;;;;;;;;;;;;19.26;34.52;100917.78;4921993;27;99861;-74
2023/07/14 02:17:33;;;;;;;;;;;;;;;19.28;34.55;100914.72;4923213;28;98106;-74
2023/07/14 02:20:04;;;;;;;;;;;;;;;19.33;34.62;100917.31;4947074;28;98156;-74
2023/07/14 02:22:30;;;;;;;;;;;;;;;19.37;34.69;100924.59;4925408;27;97959;-74
2023/07/14 02:24:56;;;;;;;;;;;;;;;19.40;34.50;100920.41;4941476;27;98231;-74
2023/07/14 02:27:22;;;;;;;;;;;;;;;19.41;34.65;100913.00;4922131;28;98194;-70
2023/07/14 02:29:49;;;;;;;;;;;;;;;19.38;34.51;100915.25;4930824;27;98385;-70
2023/07/14 02:32:41;;;;;;;;;;;;;;;19.36;34.56;100927.63;4930950;28;98246;-74
2023/07/14 02:35:19;;;;;;;;;;;;;;;19.34;34.76;100933.41;4944564;28;98350;-69
2023/07/14 02:38:03;;;;;;;;;;;;;;;19.33;34.80;100929.03;4929113;28;118702;-70
2023/07/14 02:40:37;;;;;;;;;;;;;;;19.33;34.80;100933.69;4948544;28;98716;-70
2023/07/14 02:43:08;;;;;;;;;;;;;;;19.32;34.61;100937.56;4926065;27;98322;-74
2023/07/14 02:45:36;;;;;;;;;;;;;;;19.28;34.75;100933.84;4943395;28;98314;-74
2023/07/14 02:48:02;;;;;;;;;;;;;;;19.21;34.82;100933.50;4946117;28;98384;-70
2023/07/14 02:50:28;;;;;;;;;;;;;;;19.15;34.88;100935.56;4924383;28;98378;-74
2023/07/14 02:52:55;;;;;;;;;;;;;;;19.11;34.93;100931.84;4923746;28;98014;-74
2023/07/14 02:55:22;;;;;;;;;;;;;;;19.10;34.71;100931.03;4930393;28;98365;-73
2023/07/14 02:57:48;;;;;;;;;;;;;;;19.11;34.76;100931.84;4929622;27;97911;-70
2023/07/14 03:00:15;;;;;;;;;;;;;;;19.10;34.73;100933.78;4932945;27;99629;-74
2023/07/14 03:02:42;;;;;;;;;;;;;;;19.10;34.72;100941.97;4946385;27;97828;-74
2023/07/14 03:05:11;;;;;;;;;;;;;;;19.08;34.75;100940.66;4929265;28;97931;-73
2023/07/14 03:07:51;;;;;;;;;;;;;;;19.07;34.80;100942.59;5018853;27;98145;-73
2023/07/14 03:10:17;;;;;;;;;;;;;;;19.07;34.89;100947.25;4943433;28;99468;-69
2023/07/14 03:12:43;;;;;;;;;;;;;;;19.03;34.67;100947.06;4975857;27;98141;-74
2023/07/14 03:15:09;;;;;;;;;;;;;;;19.02;34.58;100947.38;4943224;28;123374;-74
2023/07/14 03:17:35;;;;;;;;;;;;;;;19.02;34.80;100948.19;4943089;28;98016;-71
2023/07/14 03:20:02;;;;;;;;;;;;;;;19.02;34.71;100947.38;4941145;27;98006;-70
2023/07/14 03:22:30;;;;;;;;;;;;;;;19.03;34.78;100943.53;4965401;27;98500;-73
2023/07/14 03:25:00;;;;;;;;;;;;;;;19.02;34.97;100942.72;4942506;27;98045;-70
2023/07/14 03:27:27;;;;;;;;;;;;;;;18.98;34.97;100943.63;4964000;27;98648;-70
2023/07/14 03:29:56;;;;;;;;;;;;;;;18.94;34.86;100939.94;4960960;27;98348;-74
2023/07/14 03:32:23;;;;;;;;;;;;;;;18.85;34.83;100943.41;4959742;27;98476;-74
2023/07/14 03:34:49;;;;;;;;;;;;;;;18.80;34.88;100940.00;4961244;27;98435;-70
2023/07/14 03:37:15;;;;;;;;;;;;;;;18.72;34.85;100955.22;4976400;27;98369;-69
2023/07/14 03:39:42;;;;;;;;;;;;;;;18.67;34.76;100938.94;4947654;27;98097;-69
2023/07/14 03:42:10;;;;;;;;;;;;;;;18.63;34.98;100941.47;4944080;27;98172;-70
2023/07/14 03:44:37;;;;;;;;;;;;;;;18.64;35.03;100942.28;4944995;27;98303;-74
2023/07/14 03:47:04;;;;;;;;;;;;;;;18.64;34.78;100939.53;4942151;27;98926;-74
2023/07/14 03:49:30;;;;;;;;;;;;;;;18.60;34.80;100949.47;4947005;27;97998;-70
2023/07/14 03:51:57;;;;;;;;;;;;;;;18.56;34.97;100951.22;4947097;27;98942;-74
2023/07/14 03:54:23;;;;;;;;;;;;;;;18.52;34.87;100945.56;4964106;27;98132;-74
2023/07/14 03:56:52;;;;;;;;;;;;;;;18.52;34.94;100942.03;4945937;27;98103;-70
2023/07/14 03:59:18;;;;;;;;;;;;;;;18.53;34.79;100938.16;4959047;27;98146;-74
2023/07/14 04:01:45;;;;;;;;;;;;;;;18.55;34.74;100944.94;4948150;27;98091;-74
2023/07/14 04:04:12;;;;;;;;;;;;;;;18.58;34.82;100951.69;4940870;27;99349;-70
2023/07/14 04:06:39;;;;;;;;;;;;;;;18.63;34.81;100946.94;4945447;27;98043;-69
2023/07/14 04:09:07;;;;;;;;;;;;;;;18.69;34.95;100950.34;4961154;27;98359;-74
2023/07/14 04:11:34;;;;;;;;;;;;;;;18.76;34.89;100944.47;4962102;27;98126;-74
2023/07/14 04:14:02;;;;;;;;;;;;;;;18.81;34.78;100947.88;4962138;27;100297;-71
2023/07/14 04:16:29;;;;;;;;;;;;;;;18.86;34.76;100944.22;4954060;27;98818;-70
2023/07/14 04:18:55;;;;;;;;;;;;;;;18.91;34.73;100940.56;4938388;27;98078;-71
2023/07/14 04:21:25;;;;;;;;;;;;;;;18.95;34.67;100947.81;4945928;28;98397;-75
2023/07/14 04:23:56;;;;;;;;;;;;;;;18.96;34.60;100943.97;4931493;27;99619;-71
2023/07/14 04:26:22;;;;;;;;;;;;;;;18.98;34.63;100949.94;4941063;28;99487;-74
2023/07/14 04:28:49;;;;;;;;;;;;;;;19.03;34.74;100949.81;4926746;27;98113;-72
2023/07/14 04:31:16;;;;;;;;;;;;;;;19.08;34.44;100952.38;4928488;27;98007;-71
2023/07/14 04:33:46;;;;;;;;;;;;;;;19.12;34.72;100958.84;4929782;27;98472;-69
2023/07/14 04:36:13;;;;;;;;;;;;;;;19.19;34.79;100961.13;4920014;28;98530;-71
2023/07/14 04:38:41;;;;;;;;;;;;;;;19.22;34.71;100957.78;4927387;27;98245;-68
2023/07/14 04:41:08;;;;;;;;;;;;;;;19.25;34.67;100964.53;4928475;28;98047;-69
2023/07/14 04:43:34;;;;;;;;;;;;;;;19.29;34.56;100960.06;4928210;28;98359;-68
2023/07/14 04:46:01;;;;;;;;;;;;;;;19.32;34.63;100959.44;4929809;27;97887;-71
2023/07/14 04:48:28;;;;;;;;;;;;;;;19.37;34.76;100967.47;4944281;27;98217;-67
2023/07/14 04:50:54;;;;;;;;;;;;;;;19.42;34.42;100969.28;4929279;28;98160;-69
2023/07/14 04:53:21;;;;;;;;;;;;;;;19.46;34.63;100964.81;4930473;28;98116;-71
2023/07/14 04:55:51;;;;;;;;;;;;;;;19.50;34.70;100961.13;4938270;27;98387;-68
2023/07/14 04:58:18;;;;;;;;;;;;;;;19.53;34.57;100959.69;4957844;27;98352;-71
2023/07/14 05:00:45;;;;;;;;;;;;;;;19.55;34.60;100952.78;4924001;27;99167;-71
2023/07/14 05:03:11;;;;;;;;;;;;;;;19.60;34.70;100965.50;4945087;27;100336;-69
2023/07/14 05:05:38;;;;;;;;;;;;;;;19.66;34.66;100963.47;4926739;27;98421;-70
2023/07/14 05:08:05;;;;;;;;;;;;;;;19.70;34.56;100959.78;4928225;28;98368;-71
2023/07/14 05:10:32;;;;;;;;;;;;;;;19.77;34.53;100954.66;4926106;27;98370;-71
2023/07/14 05:12:59;;;;;;;;;;;;;;;19.85;34.37;100964.03;4929411;27;97959;-69
2023/07/14 05:15:26;;;;;;;;;;;;;;;19.98;34.34;100962.28;4933162;28;98230;-71
2023/07/14 05:17:52;;;;;;;;;;;;;;;20.15;34.33;100964.22;4931194;27;98426;-69
2023/07/14 05:20:19;;;;;;;;;;;;;;;20.28;34.28;100953.16;4932092;27;100143;-69
2023/07/14 05:22:54;;;;;;;;;;;;;;;20.43;34.12;100951.84;4929903;28;98073;-71
2023/07/14 05:25:20;;;;;;;;;;;;;;;20.59;34.19;100953.03;4954324;28;98167;-69
2023/07/14 05:27:48;;;;;;;;;;;;;;;20.78;33.99;100957.34;4933336;27;98235;-69
2023/07/14 05:30:17;;;;;;;;;;;;;;;20.95;33.94;100954.59;4931481;28;98285;-71
2023/07/14 05:32:44;;;;;;;;;;;;;;;21.12;33.95;100955.69;4943653;27;98173;-68
2023/07/14 05:35:11;;;;;;;;;;;;;;;21.29;33.80;100950.94;4942733;27;97845;-68
2023/07/14 05:37:38;;;;;;;;;;;;;;;21.45;33.82;100959.47;4933412;27;98331;-71
2023/07/14 05:40:06;;;;;;;;;;;;;;;21.64;33.83;100956.31;4925123;27;98055;-68
2023/07/14 05:42:33;;;;;;;;;;;;;;;21.81;33.70;100956.25;4959748;27;98286;-69
2023/07/14 05:44:59;;;;;;;;;;;;;;;22.02;33.71;100959.03;4933123;27;98411;-71
2023/07/14 05:47:26;;;;;;;;;;;;;;;22.22;33.60;100962.16;4947798;28;98122;-69
2023/07/14 05:49:54;;;;;;;;;;;;;;;22.41;33.53;100958.94;4931861;27;98451;-71
2023/07/14 05:52:20;;;;;;;;;;;;;;;22.62;33.41;100959.72;4928772;28;98099;-68
2023/07/14 05:54:47;;;;;;;;;;;;;;;22.86;33.38;100952.72;4929207;27;98181;-68
2023/07/14 05:57:14;;;;;;;;;;;;;;;23.09;33.51;100961.41;4925793;28;98128;-71
2023/07/14 05:59:40;;;;;;;;;;;;;;;23.37;33.40;100958.81;4928971;27;98175;-71
2023/07/14 06:02:11;;;;;;;;;;;;;;;23.68;33.43;100961.84;4949274;28;98228;-69
2023/07/14 06:04:38;;;;;;;;;;;;;;;24.02;33.17;100961.72;4933799;28;98191;-69
2023/07/14 06:07:06;;;;;;;;;;;;;;;24.35;32.99;100953.25;4940839;27;98221;-69
2023/07/14 06:09:36;;;;;;;;;;;;;;;24.71;32.94;100947.63;4931946;27;98250;-69
2023/07/14 06:12:06;;;;;;;;;;;;;;;25.12;32.84;100959.41;4924950;28;98420;-71
2023/07/14 06:14:33;;;;;;;;;;;;;;;25.56;32.99;100947.50;4925106;28;98194;-69
2023/07/14 06:17:01;;;;;;;;;;;;;;;26.42;32.42;100951.03;4927912;27;98088;-71
2023/07/14 06:19:30;;;;;;;;;;;;;;;26.83;32.16;100943.19;4947999;27;98237;-69
2023/07/14 06:21:57;;;;;;;;;;;;;;;27.03;32.59;100940.38;4941010;28;98500;-72
2023/07/14 06:24:23;;;;;;;;;;;;;;;27.67;32.01;100941.50;4928104;28;98417;-69
2023/07/14 06:26:50;;;;;;;;;;;;;;;27.99;32.00;100958.59;4929625;27;98118;-72
2023/07/14 06:29:18;;;;;;;;;;;;;;;28.42;31.88;100947.34;4945717;27;99547;-69
2023/07/14 06:31:44;;;;;;;;;;;;;;;28.89;31.88;100946.69;4931506;28;98592;-69
2023/07/14 06:34:13;;;;;;;;;;;;;;;29.41;32.09;100936.47;4943446;28;98230;-69
2023/07/14 06:36:39;;;;;;;;;;;;;;;29.98;31.86;100939.63;4945478;27;98348;-69
2023/07/14 06:39:07;;;;;;;;;;;;;;;30.86;31.47;100948.00;4926885;27;97952;-72
2023/07/14 06:41:34;;;;;;;;;;;;;;;31.54;30.90;100940.50;4943457;28;100141;-70
2023/07/14 06:44:02;;;;;;;;;;;;;;;32.16;30.86;100953.94;4942298;28;98808;-72
2023/07/14 06:46:30;;;;;;;;;;;;;;;32.76;30.17;100954.88;4941633;28;99073;-69
2023/07/14 06:48:58;;;;;;;;;;;;;;;33.43;29.71;100942.44;4956868;27;98142;-69
2023/07/14 06:51:25;;;;;;;;;;;;;;;33.41;30.02;100941.28;4949009;28;98263;-69
2023/07/14 06:53:53;;;;;;;;;;;;;;;33.27;30.10;100941.38;4929618;27;98399;-72
2023/07/14 06:56:19;;;;;;;;;;;;;;;33.20;30.47;100943.03;4933896;28;98199;-72
2023/07/14 06:58:46;;;;;;;;;;;;;;;33.26;30.87;100942.59;4945965;27;98011;-69
2023/07/14 07:01:13;;;;;;;;;;;;;;;33.36;30.78;100934.09;4931738;27;98249;-72
2023/07/14 07:03:40;;;;;;;;;;;;;;;33.45;30.69;100936.44;4943136;27;98406;-72
2023/07/14 07:06:07;;;;;;;;;;;;;;;33.52;30.37;100933.59;4930288;28;98037;-69
2023/07/14 07:08:34;;;;;;;;;;;;;;;33.68;30.27;100925.47;4928122;28;98987;-69
2023/07/14 07:11:00;;;;;;;;;;;;;;;34.00;30.67;100929.94;4931568;27;98288;-70
2023/07/14 07:13:27;;;;;;;;;;;;;;;34.40;30.57;100924.66;4929852;28;99651;-73
2023/07/14 07:15:53;;;;;;;;;;;;;;;34.83;29.91;100929.69;4931690;28;99412;-73
2023/07/14 07:18:24;;;;;;;;;;;;;;;35.12;29.78;100919.63;4932090;28;98020;-72
2023/07/14 07:20:51;;;;;;;;;;;;;;;35.36;29.86;100920.41;4943359;27;97997;-70
2023/07/14 07:23:18;;;;;;;;;;;;;;;35.76;29.74;100923.31;4929080;28;99443;-69
2023/07/14 07:25:52;;;;;;;;;;;;;;;36.16;29.69;100919.75;4930836;28;98614;-70
2023/07/14 07:28:19;;;;;;;;;;;;;;;36.49;29.53;100917.88;4926485;28;101814;-73
2023/07/14 07:30:46;;;;;;;;;;;;;;;36.73;29.35;100912.91;4926050;27;98218;-73
2023/07/14 07:33:12;;;;;;;;;;;;;;;36.83;29.31;100909.84;4945083;28;98549;-73
2023/07/14 07:35:40;;;;;;;;;;;;;;;37.00;29.56;100916.28;4946718;27;98379;-69
2023/07/14 07:38:10;;;;;;;;;;;;;;;37.21;29.17;100911.34;4929955;28;100460;-73
2023/07/14 07:40:36;;;;;;;;;;;;;;;37.47;29.57;100907.50;4947444;28;98141;-73
2023/07/14 07:43:03;;;;;;;;;;;;;;;37.72;29.11;100908.81;4931525;27;98155;-70
2023/07/14 07:45:29;;;;;;;;;;;;;;;37.96;29.21;100906.56;4922882;27;98244;-69
2023/07/14 07:47:55;;;;;;;;;;;;;;;38.14;29.01;100897.63;4945853;27;100047;-69
2023/07/14 07:50:21;;;;;;;;;;;;;;;38.33;29.07;100893.03;4928899;27;98554;-73
2023/07/14 07:52:48;;;;;;;;;;;;;;;38.58;28.83;100892.28;4931041;28;98033;-74
2023/07/14 07:55:14;;;;;;;;;;;;;;;38.89;28.83;100886.88;4928516;28;97917;-72
2023/07/14 07:57:41;;;;;;;;;;;;;;;39.18;28.50;100892.31;4942280;28;98034;-69
2023/07/14 08:00:11;;;;;;;;;;;;;;;39.67;28.41;100883.38;4932749;27;98401;-72
2023/07/14 08:02:37;;;;;;;;;;;;;;;40.04;28.23;100890.06;4928087;27;99474;-68
2023/07/14 08:05:03;;;;;;;;;;;;;;;40.13;28.35;100883.72;4951109;28;98298;-69
2023/07/14 08:07:29;;;;;;;;;;;;;;;40.52;28.05;100881.38;4934789;27;97929;-72
2023/07/14 08:09:56;;;;;;;;;;;;;;;40.93;27.78;100874.47;4945228;27;98121;-72
2023/07/14 08:12:23;;;;;;;;;;;;;;;41.38;27.64;100879.38;4931406;28;98112;-69
2023/07/14 08:14:54;;;;;;;;;;;;;;;41.95;27.17;100869.66;4928390;27;98623;-72
2023/07/14 08:17:26;;;;;;;;;;;;;;;42.50;26.99;100860.97;4931855;28;98262;-69
2023/07/14 08:19:52;;;;;;;;;;;;;;;43.13;26.66;100861.88;4931601;27;98139;-72
2023/07/14 08:22:21;;;;;;;;;;;;;;;43.59;26.70;100853.78;4941385;28;98047;-76
2023/07/14 08:24:47;;;;;;;;;;;;;;;44.07;26.61;100850.75;4948554;27;98050;-72
2023/07/14 08:27:17;;;;;;;;;;;;;;;44.46;26.54;100852.66;4933512;27;98352;-72
2023/07/14 08:29:43;;;;;;;;;;;;;;;44.66;26.53;100852.69;4931993;27;98533;-72
2023/07/14 08:32:10;;;;;;;;;;;;;;;45.02;26.50;100850.56;4938315;28;101922;-67
2023/07/14 08:34:37;;;;;;;;;;;;;;;45.41;26.51;100848.19;4932066;28;98200;-69
2023/07/14 08:37:07;;;;;;;;;;;;;;;45.64;26.41;100848.44;4931811;28;98600;-69
2023/07/14 08:39:34;;;;;;;;;;;;;;;46.03;26.36;100851.66;4927594;27;98318;-74
2023/07/14 08:42:07;;;;;;;;;;;;;;;46.16;26.03;100851.22;4929200;28;97992;-70
2023/07/14 08:44:55;;;;;;;;;;;;;;;46.12;26.36;100854.31;4943295;27;97987;-70
2023/07/14 08:47:31;;;;;;;;;;;;;;;46.46;26.31;100846.78;4926849;27;98116;-70
2023/07/14 08:50:05;;;;;;;;;;;;;;;46.92;26.27;100850.66;4933076;28;98253;-70
2023/07/14 08:52:33;;;;;;;;;;;;;;;47.14;26.27;100832.88;4931968;27;98108;-69
2023/07/14 08:55:04;;;;;;;;;;;;;;;47.04;26.25;100840.09;4934671;28;98252;-70
2023/07/14 08:57:41;;;;;;;;;;;;;;;47.19;26.26;100835.72;4960400;27;99090;-70
2023/07/14 09:00:09;;;;;;;;;;;;;;;47.55;25.87;100829.59;4933335;27;98042;-75
2023/07/14 09:03:01;;;;;;;;;;;;;;;47.56;25.79;100831.13;4942051;27;98088;-70
2023/07/14 09:05:28;;;;;;;;;;;;;;;47.20;26.05;100820.19;4951195;28;98038;-70
2023/07/14 09:07:54;;;;;;;;;;;;;;;47.55;26.14;100830.38;4930708;27;98083;-70
2023/07/14 09:10:45;;;;;;;;;;;;;;;47.33;26.32;100822.56;4931572;28;98226;-70
2023/07/14 09:13:30;;;;;;;;;;;;;;;48.14;25.47;100815.06;4950135;27;99295;-74
2023/07/14 09:15:56;;;;;;;;;;;;;;;48.41;25.29;100816.34;4977304;27;98528;-73
2023/07/14 09:18:55;;;;;;;;;;;;;;;45.42;27.52;100818.47;4931548;27;98417;-73
2023/07/14 09:21:23;;;;;;;;;;;;;;;47.49;26.25;100818.19;4959781;28;98398;-68
2023/07/14 09:24:05;;;;;;;;;;;;;;;44.81;27.84;100821.38;4947360;27;98291;-69
2023/07/14 09:26:34;;;;;;;;;;;;;;;42.76;28.91;100801.81;4934411;27;98365;-69
2023/07/14 09:29:07;;;;;;;;;;;;;;;41.08;30.12;100804.03;4930635;27;99710;-69
2023/07/14 09:31:44;;;;;;;;;;;;;;;40.37;30.34;100807.78;4925195;28;98091;-69
2023/07/14 09:34:17;;;;;;;;;;;;;;;39.33;30.89;100802.47;4947033;28;100744;-71
2023/07/14 09:36:44;;;;;;;;;;;;;;;39.49;30.27;100797.41;4949971;27;98008;-69
2023/07/14 09:39:20;;;;;;;;;;;;;;;38.02;31.07;100797.91;4942437;27;97966;-69
2023/07/14 09:41:48;;;;;;;;;;;;;;;38.72;30.20;100798.91;4931479;27;98137;-71
2023/07/14 09:44:15;;;;;;;;;;;;;;;39.71;29.21;100803.06;4930490;28;98337;-71
2023/07/14 09:46:45;;;;;;;;;;;;;;;38.99;29.51;100796.38;4931272;27;99631;-69
2023/07/14 09:49:35;;;;;;;;;;;;;;;40.42;28.39;100804.34;4932392;28;100368;-68
2023/07/14 09:52:21;;;;;;;;;;;;;;;38.94;29.67;100794.13;4932651;28;98166;-69
2023/07/14 09:54:52;;;;;;;;;;;;;;;38.59;29.39;100784.06;4959650;27;98344;-68
2023/07/14 09:57:27;;;;;;;;;;;;;;;37.68;30.53;100787.25;4932653;28;98122;-71
2023/07/14 09:59:58;;;;;;;;;;;;;;;38.95;28.79;100784.44;4948796;27;97794;-71
2023/07/14 10:02:32;;;;;;;;;;;;;;;38.81;29.25;100784.16;4947632;27;98497;-71
2023/07/14 10:05:34;;;;;;;;;;;;;;;36.85;30.60;100783.84;4949864;27;97977;-69
2023/07/14 10:08:04;;;;;;;;;;;;;;;35.68;31.14;100781.72;4944146;28;102124;-68
2023/07/14 10:10:32;;;;;;;;;;;;;;;34.95;31.51;100775.13;4945781;27;98242;-70
2023/07/14 10:13:01;;;;;;;;;;;;;;;34.31;31.73;100771.34;4948062;28;98717;-70
2023/07/14 10:15:34;;;;;;;;;;;;;;;33.78;32.31;100775.66;4928589;27;97984;-69
2023/07/14 10:18:05;;;;;;;;;;;;;;;33.43;32.40;100765.69;4927003;27;98060;-70
2023/07/14 10:20:32;;;;;;;;;;;;;;;33.29;32.33;100760.25;4931143;27;98191;-71
2023/07/14 10:22:59;;;;;;;;;;;;;;;32.84;32.00;100754.72;4928004;27;100175;-70
2023/07/14 10:25:26;;;;;;;;;;;;;;;32.47;32.67;100753.44;4925195;28;98287;-68
2023/07/14 10:28:05;;;;;;;;;;;;;;;32.28;32.28;100743.59;4949229;27;98228;-68
2023/07/14 10:30:48;;;;;;;;;;;;;;;32.13;32.11;100747.66;4959026;27;97935;-71
2023/07/14 10:33:33;;;;;;;;;;;;;;;32.09;32.12;100747.69;4949270;28;98343;-70
2023/07/14 10:36:02;;;;;;;;;;;;;;;32.56;31.17;100739.81;4932882;27;98262;-68
2023/07/14 10:38:49;;;;;;;;;;;;;;;35.65;29.10;100740.59;4949422;28;98298;-70
2023/07/14 10:41:15;;;;;;;;;;;;;;;37.47;27.86;100738.09;4927459;28;98204;-67
2023/07/14 10:43:51;;;;;;;;;;;;;;;36.09;29.24;100736.41;4938115;27;100447;-68
2023/07/14 10:46:25;;;;;;;;;;;;;;;34.87;30.68;100731.66;4945946;28;98167;-70
2023/07/14 10:48:57;;;;;;;;;;;;;;;37.75;28.38;100734.41;4959065;27;98798;-68
2023/07/14 10:51:43;;;;;;;;;;;;;;;36.94;28.73;100727.09;4946391;27;99278;-68
2023/07/14 10:54:46;;;;;;;;;;;;;;;35.28;30.64;100728.50;4928896;28;98577;-71
2023/07/14 10:57:33;;;;;;;;;;;;;;;37.51;28.42;100721.91;4942016;28;98226;-69
2023/07/14 11:00:08;;;;;;;;;;;;;;;39.42;27.08;100726.41;4943719;27;98116;-72
2023/07/14 11:02:37;;;;;;;;;;;;;;;40.73;26.55;100730.88;4944793;27;98174;-71
2023/07/14 11:05:14;;;;;;;;;;;;;;;40.59;27.06;100725.81;4939984;28;97989;-71
2023/07/14 11:07:40;;;;;;;;;;;;;;;41.77;26.38;100717.69;4929752;28;99087;-69
2023/07/14 11:10:21;;;;;;;;;;;;;;;42.35;26.40;100710.81;4924814;27;98156;-72
2023/07/14 11:12:53;;;;;;;;;;;;;;;42.99;26.14;100713.16;4929254;27;98489;-69
2023/07/14 11:15:26;;;;;;;;;;;;;;;40.42;28.29;100699.91;4924841;28;98318;-69
2023/07/14 11:18:26;;;;;;;;;;;;;;;38.76;29.11;100690.53;4945404;27;98874;-68
2023/07/14 11:20:54;;;;;;;;;;;;;;;39.07;28.84;100692.69;4960322;27;99419;-72
2023/07/14 11:23:46;;;;;;;;;;;;;;;40.95;27.30;100685.50;4960766;27;98149;-72
2023/07/14 11:26:23;;;;;;;;;;;;;;;41.73;26.99;100683.13;4961437;27;98457;-72
2023/07/14 11:29:00;;;;;;;;;;;;;;;42.17;26.61;100683.38;4948194;27;98310;-68
2023/07/14 11:31:31;;;;;;;;;;;;;;;42.50;26.63;100679.75;4934521;28;98147;-68
2023/07/14 11:34:22;;;;;;;;;;;;;;;42.70;26.54;100674.25;4932644;28;99876;-68
2023/07/14 11:36:50;;;;;;;;;;;;;;;40.12;28.91;100673.34;4967807;27;97965;-69
2023/07/14 11:39:35;;;;;;;;;;;;;;;38.73;29.48;100662.50;4963563;27;98428;-71
2023/07/14 11:42:03;;;;;;;;;;;;;;;38.83;29.03;100661.38;4965044;28;98307;-68
2023/07/14 11:44:29;;;;;;;;;;;;;;;39.93;28.39;100658.38;4931387;28;100099;-68
2023/07/14 11:46:58;;;;;;;;;;;;;;;40.38;28.07;100665.41;4930398;27;98198;-71
2023/07/14 11:49:33;;;;;;;;;;;;;;;39.71;28.96;100658.47;4927795;28;98075;-68
2023/07/14 11:52:10;;;;;;;;;;;;;;;38.53;29.56;100651.56;4934039;28;98380;-71
2023/07/14 11:54:54;;;;;;;;;;;;;;;39.26;29.02;100646.50;4949546;27;98912;-72
2023/07/14 11:57:21;;;;;;;;;;;;;;;39.89;28.51;100654.91;4935861;27;98086;-69
2023/07/14 11:59:59;;;;;;;;;;;;;;;40.11;28.39;100647.16;4932010;27;98894;-69
2023/07/14 12:02:36;;;;;;;;;;;;;;;40.09;28.41;100646.03;4933928;28;98358;-71
2023/07/14 12:05:14;;;;;;;;;;;;;;;39.90;28.88;100645.22;4931061;27;99688;-69
2023/07/14 12:08:03;;;;;;;;;;;;;;;39.28;29.19;100632.72;4942035;28;98525;-74
2023/07/14 12:10:38;;;;;;;;;;;;;;;38.57;29.67;100634.53;4945807;28;98049;-72
2023/07/14 12:13:22;;;;;;;;;;;;;;;39.12;28.74;100632.94;4960927;28;98165;-72
2023/07/14 12:15:57;;;;;;;;;;;;;;;39.35;28.63;100630.88;4925466;28;98263;-73
2023/07/14 12:18:27;;;;;;;;;;;;;;;39.01;29.31;100632.53;4953593;28;98412;-71
2023/07/14 12:21:18;;;;;;;;;;;;;;;39.75;28.28;100636.56;4947460;28;100270;-72
2023/07/14 12:23:48;;;;;;;;;;;;;;;40.11;28.42;100630.25;4944803;28;97906;-71
2023/07/14 12:26:17;;;;;;;;;;;;;;;40.21;28.28;100622.59;4927717;28;98453;-74
2023/07/14 12:28:43;;;;;;;;;;;;;;;40.49;28.06;100621.34;4924816;28;100714;-74
2023/07/14 12:31:17;;;;;;;;;;;;;;;39.96;28.55;100626.41;4927807;28;98093;-73
2023/07/14 12:33:45;;;;;;;;;;;;;;;38.95;29.12;100609.03;4929103;28;98382;-72
2023/07/14 12:36:19;;;;;;;;;;;;;;;38.03;29.80;100614.63;4906774;28;98355;-73
2023/07/14 12:38:47;;;;;;;;;;;;;;;38.07;29.57;100614.50;4912969;28;98395;-73
2023/07/14 12:41:14;;;;;;;;;;;;;;;37.37;29.62;100609.91;4912484;28;99248;-74
2023/07/14 12:43:43;;;;;;;;;;;;;;;37.38;29.98;100605.88;4914292;28;98140;-73
2023/07/14 12:46:39;;;;;;;;;;;;;;;36.97;29.90;100597.03;4925060;28;98231;-73
2023/07/14 12:49:36;;;;;;;;;;;;;;;38.00;28.77;100598.66;4913128;28;97957;-74
2023/07/14 12:52:07;;;;;;;;;;;;;;;38.38;29.10;100591.38;4929856;28;99444;-74
2023/07/14 12:54:33;;;;;;;;;;;;;;;37.31;29.94;100590.03;4913899;28;101090;-73